Michigan — WDF5344 — position and weather

sailwx.info

Track history (hours):
 
Tides and Currents Weather Stations Pressure Air Temp Water Temp Dewpoint Dewpoint Depression Visibility Wind Speed Wind Dir Waves Ship Positions

Michigan

Owner: GATX Third Aircraft Corporation, San Francisco, CA. More information available from US FCC via Universal Licensing System and Coast Guard Vessel Documentation Center.

Last reported at 2016-May-28 19:34 UTC. Time now 2016-May-29 03:58 UTC.
Position N 45°39' W 084°28'.

Length 144 m.

Type: Ship (hazmat cat D). MMSI: 303583000.

Date/timePositionNaut miles runAvg speedWind from/ knotsBaromVisibWave heightAir tempDewpointWater temp
2016-May-28 19:34N 45°39' W 084°28'6 6.0
2016-May-28 18:33N 45°44' W 084°33'1010.3
2016-May-28 17:34N 45°49' W 084°46'1010.4
2016-May-28 16:33N 45°51' W 085°00'1110.6
2016-May-28 15:33N 45°52' W 085°16'1110.5
2016-May-28 14:33N 45°53' W 085°31'1010.3
2016-May-28 13:33N 45°50' W 085°44'1110.7
2016-May-28 12:33N 45°44' W 085°58'1110.8
2016-May-28 11:33N 45°39' W 086°11'  
Track history (hours):
 
Tides and Currents Weather Stations Pressure Air Temp Water Temp Dewpoint Dewpoint Depression Visibility Wind Speed Wind Dir Waves Ship Positions

Michigan

Owner: GATX Third Aircraft Corporation, San Francisco, CA. More information available from US FCC via Universal Licensing System and Coast Guard Vessel Documentation Center.

Last reported at 2016-May-28 19:34 UTC. Time now 2016-May-29 03:58 UTC.
Position N 45°39' W 084°28'.

Length 144 m.

Type: Ship (hazmat cat D). MMSI: 303583000.

Date/timePositionNaut miles runAvg speedWind from/ knotsBaromVisibWave heightAir tempDewpointWater temp
2016-May-28 19:34N 45°39' W 084°28'6 6.0
2016-May-28 18:33N 45°44' W 084°33'1010.3
2016-May-28 17:34N 45°49' W 084°46'1010.4
2016-May-28 16:33N 45°51' W 085°00'1110.6
2016-May-28 15:33N 45°52' W 085°16'1110.5
2016-May-28 14:33N 45°53' W 085°31'1010.3
2016-May-28 13:33N 45°50' W 085°44'1110.7
2016-May-28 12:33N 45°44' W 085°58'1110.8
2016-May-28 11:33N 45°39' W 086°11'  

Dump ship's entire track history